sensor_id;sensor_type;location;lat;lon;timestamp;P1;durP1;ratioP1;P2;durP2;ratioP2
58990;SDS011;44781;53.444;14.476;2023-03-31T00:00:34;8.50;;;2.50;;
58990;SDS011;44781;53.444;14.476;2023-03-31T00:03:12;8.60;;;2.10;;
58990;SDS011;44781;53.444;14.476;2023-03-31T00:05:59;5.70;;;2.10;;
58990;SDS011;44781;53.444;14.476;2023-03-31T00:08:34;6.10;;;2.20;;
58990;SDS011;44781;53.444;14.476;2023-03-31T00:11:04;5.70;;;1.90;;
58990;SDS011;44781;53.444;14.476;2023-03-31T00:13:38;8.00;;;2.50;;
58990;SDS011;44781;53.444;14.476;2023-03-31T00:16:08;7.10;;;2.50;;
58990;SDS011;44781;53.444;14.476;2023-03-31T00:18:36;6.50;;;3.70;;
58990;SDS011;44781;53.444;14.476;2023-03-31T00:21:07;6.70;;;2.80;;
58990;SDS011;44781;53.444;14.476;2023-03-31T00:23:40;8.60;;;3.00;;
58990;SDS011;44781;53.444;14.476;2023-03-31T00:26:12;6.50;;;2.30;;
58990;SDS011;44781;53.444;14.476;2023-03-31T00:28:42;6.70;;;2.10;;
58990;SDS011;44781;53.444;14.476;2023-03-31T00:31:23;6.80;;;1.80;;
58990;SDS011;44781;53.444;14.476;2023-03-31T00:36:52;7.70;;;1.80;;
58990;SDS011;44781;53.444;14.476;2023-03-31T00:39:26;7.80;;;2.50;;
58990;SDS011;44781;53.444;14.476;2023-03-31T00:42:01;8.50;;;2.20;;
58990;SDS011;44781;53.444;14.476;2023-03-31T00:47:57;6.30;;;2.00;;
58990;SDS011;44781;53.444;14.476;2023-03-31T00:50:56;5.70;;;2.10;;
58990;SDS011;44781;53.444;14.476;2023-03-31T00:53:27;6.30;;;2.10;;
58990;SDS011;44781;53.444;14.476;2023-03-31T00:56:00;6.90;;;2.10;;
58990;SDS011;44781;53.444;14.476;2023-03-31T00:58:44;7.10;;;2.40;;
58990;SDS011;44781;53.444;14.476;2023-03-31T01:01:15;5.80;;;2.30;;
58990;SDS011;44781;53.444;14.476;2023-03-31T01:03:46;8.30;;;2.50;;
58990;SDS011;44781;53.444;14.476;2023-03-31T01:06:13;6.00;;;2.00;;
58990;SDS011;44781;53.444;14.476;2023-03-31T01:08:47;7.90;;;2.30;;
58990;SDS011;44781;53.444;14.476;2023-03-31T01:11:26;6.40;;;2.30;;
58990;SDS011;44781;53.444;14.476;2023-03-31T01:13:57;5.10;;;2.20;;
58990;SDS011;44781;53.444;14.476;2023-03-31T01:16:24;7.70;;;2.30;;
58990;SDS011;44781;53.444;14.476;2023-03-31T01:18:57;6.10;;;2.30;;
58990;SDS011;44781;53.444;14.476;2023-03-31T01:24:43;7.80;;;2.70;;
58990;SDS011;44781;53.444;14.476;2023-03-31T01:27:49;6.30;;;2.10;;
58990;SDS011;44781;53.444;14.476;2023-03-31T01:33:46;7.10;;;2.40;;
58990;SDS011;44781;53.444;14.476;2023-03-31T01:36:34;6.70;;;2.50;;
58990;SDS011;44781;53.444;14.476;2023-03-31T01:42:07;6.50;;;2.40;;
58990;SDS011;44781;53.444;14.476;2023-03-31T01:47:41;7.50;;;2.40;;
58990;SDS011;44781;53.444;14.476;2023-03-31T01:50:30;5.60;;;2.40;;
58990;SDS011;44781;53.444;14.476;2023-03-31T01:53:06;4.90;;;2.30;;
58990;SDS011;44781;53.444;14.476;2023-03-31T01:56:00;5.60;;;2.20;;
58990;SDS011;44781;53.444;14.476;2023-03-31T02:01:28;7.40;;;2.80;;
58990;SDS011;44781;53.444;14.476;2023-03-31T02:04:04;7.40;;;2.50;;
58990;SDS011;44781;53.444;14.476;2023-03-31T02:06:37;7.20;;;2.60;;
58990;SDS011;44781;53.444;14.476;2023-03-31T02:09:15;6.60;;;2.40;;
58990;SDS011;44781;53.444;14.476;2023-03-31T02:11:46;8.30;;;2.60;;
58990;SDS011;44781;53.444;14.476;2023-03-31T02:14:17;5.10;;;2.50;;
58990;SDS011;44781;53.444;14.476;2023-03-31T02:16:49;6.30;;;2.50;;
58990;SDS011;44781;53.444;14.476;2023-03-31T02:19:25;6.60;;;2.80;;
58990;SDS011;44781;53.444;14.476;2023-03-31T02:21:57;5.30;;;2.60;;
58990;SDS011;44781;53.444;14.476;2023-03-31T02:24:25;7.00;;;2.50;;
58990;SDS011;44781;53.444;14.476;2023-03-31T02:29:41;8.00;;;2.90;;
58990;SDS011;44781;53.444;14.476;2023-03-31T02:32:24;5.90;;;2.60;;
58990;SDS011;44781;53.444;14.476;2023-03-31T02:35:02;7.30;;;2.60;;
58990;SDS011;44781;53.444;14.476;2023-03-31T02:37:32;7.10;;;3.20;;
58990;SDS011;44781;53.444;14.476;2023-03-31T02:40:00;7.30;;;2.70;;
58990;SDS011;44781;53.444;14.476;2023-03-31T02:42:37;8.20;;;2.90;;
58990;SDS011;44781;53.444;14.476;2023-03-31T02:45:33;7.20;;;3.00;;
58990;SDS011;44781;53.444;14.476;2023-03-31T02:48:24;6.70;;;2.70;;
58990;SDS011;44781;53.444;14.476;2023-03-31T03:02:23;7.70;;;3.40;;
58990;SDS011;44781;53.444;14.476;2023-03-31T03:19:03;8.30;;;3.30;;
58990;SDS011;44781;53.444;14.476;2023-03-31T03:21:41;7.20;;;3.30;;
58990;SDS011;44781;53.444;14.476;2023-03-31T03:24:08;9.00;;;3.30;;
58990;SDS011;44781;53.444;14.476;2023-03-31T03:26:36;6.70;;;2.90;;
58990;SDS011;44781;53.444;14.476;2023-03-31T03:29:03;7.50;;;3.60;;
58990;SDS011;44781;53.444;14.476;2023-03-31T03:31:31;8.70;;;3.80;;
58990;SDS011;44781;53.444;14.476;2023-03-31T03:33:59;9.30;;;3.70;;
58990;SDS011;44781;53.444;14.476;2023-03-31T03:36:26;6.10;;;2.90;;
58990;SDS011;44781;53.444;14.476;2023-03-31T03:38:54;10.20;;;3.50;;
58990;SDS011;44781;53.444;14.476;2023-03-31T03:41:21;7.90;;;3.60;;
58990;SDS011;44781;53.444;14.476;2023-03-31T03:43:48;7.60;;;3.50;;
58990;SDS011;44781;53.444;14.476;2023-03-31T03:46:15;10.10;;;3.70;;
58990;SDS011;44781;53.444;14.476;2023-03-31T03:48:44;8.80;;;4.00;;
58990;SDS011;44781;53.444;14.476;2023-03-31T03:51:12;7.40;;;3.40;;
58990;SDS011;44781;53.444;14.476;2023-03-31T03:53:39;8.00;;;3.60;;
58990;SDS011;44781;53.444;14.476;2023-03-31T03:56:06;9.00;;;4.00;;
58990;SDS011;44781;53.444;14.476;2023-03-31T03:58:34;9.20;;;3.50;;
58990;SDS011;44781;53.444;14.476;2023-03-31T04:01:01;8.90;;;3.70;;
58990;SDS011;44781;53.444;14.476;2023-03-31T04:03:29;8.70;;;4.00;;
58990;SDS011;44781;53.444;14.476;2023-03-31T04:05:57;7.80;;;3.70;;
58990;SDS011;44781;53.444;14.476;2023-03-31T04:08:25;6.70;;;3.50;;
58990;SDS011;44781;53.444;14.476;2023-03-31T04:10:52;8.20;;;3.70;;
58990;SDS011;44781;53.444;14.476;2023-03-31T04:13:20;7.40;;;3.80;;
58990;SDS011;44781;53.444;14.476;2023-03-31T04:15:47;7.40;;;3.20;;
58990;SDS011;44781;53.444;14.476;2023-03-31T04:18:14;9.60;;;3.80;;
58990;SDS011;44781;53.444;14.476;2023-03-31T04:20:49;7.50;;;3.40;;
58990;SDS011;44781;53.444;14.476;2023-03-31T04:23:21;9.10;;;3.30;;
58990;SDS011;44781;53.444;14.476;2023-03-31T04:25:52;9.00;;;3.40;;
58990;SDS011;44781;53.444;14.476;2023-03-31T04:28:20;8.80;;;2.90;;
58990;SDS011;44781;53.444;14.476;2023-03-31T04:30:47;8.80;;;3.10;;
58990;SDS011;44781;53.444;14.476;2023-03-31T04:33:14;8.60;;;3.20;;
58990;SDS011;44781;53.444;14.476;2023-03-31T04:35:43;8.40;;;3.20;;
58990;SDS011;44781;53.444;14.476;2023-03-31T04:38:16;7.50;;;3.20;;
58990;SDS011;44781;53.444;14.476;2023-03-31T04:40:51;7.70;;;3.30;;
58990;SDS011;44781;53.444;14.476;2023-03-31T04:43:19;8.00;;;3.40;;
58990;SDS011;44781;53.444;14.476;2023-03-31T04:45:50;12.70;;;3.90;;
58990;SDS011;44781;53.444;14.476;2023-03-31T04:48:18;7.40;;;3.30;;
58990;SDS011;44781;53.444;14.476;2023-03-31T04:50:46;8.20;;;3.10;;
58990;SDS011;44781;53.444;14.476;2023-03-31T04:53:15;7.20;;;2.90;;
58990;SDS011;44781;53.444;14.476;2023-03-31T04:55:43;7.50;;;3.10;;
58990;SDS011;44781;53.444;14.476;2023-03-31T04:58:11;7.30;;;3.30;;
58990;SDS011;44781;53.444;14.476;2023-03-31T05:00:38;9.80;;;4.20;;
58990;SDS011;44781;53.444;14.476;2023-03-31T05:03:05;7.70;;;3.20;;
58990;SDS011;44781;53.444;14.476;2023-03-31T05:05:33;9.30;;;4.00;;
58990;SDS011;44781;53.444;14.476;2023-03-31T05:08:00;7.20;;;3.30;;
58990;SDS011;44781;53.444;14.476;2023-03-31T05:10:28;7.80;;;3.30;;
58990;SDS011;44781;53.444;14.476;2023-03-31T05:12:56;8.40;;;3.20;;
58990;SDS011;44781;53.444;14.476;2023-03-31T05:15:26;10.20;;;4.70;;
58990;SDS011;44781;53.444;14.476;2023-03-31T05:17:53;11.40;;;4.30;;
58990;SDS011;44781;53.444;14.476;2023-03-31T05:20:21;11.30;;;5.60;;
58990;SDS011;44781;53.444;14.476;2023-03-31T05:22:48;10.90;;;4.60;;
58990;SDS011;44781;53.444;14.476;2023-03-31T05:25:16;9.90;;;4.00;;
58990;SDS011;44781;53.444;14.476;2023-03-31T05:27:46;9.10;;;4.10;;
58990;SDS011;44781;53.444;14.476;2023-03-31T05:30:14;10.30;;;3.70;;
58990;SDS011;44781;53.444;14.476;2023-03-31T05:32:41;8.60;;;4.20;;
58990;SDS011;44781;53.444;14.476;2023-03-31T05:35:09;11.20;;;4.10;;
58990;SDS011;44781;53.444;14.476;2023-03-31T05:37:36;10.80;;;4.60;;
58990;SDS011;44781;53.444;14.476;2023-03-31T05:40:04;12.30;;;4.80;;
58990;SDS011;44781;53.444;14.476;2023-03-31T05:42:33;9.20;;;4.60;;
58990;SDS011;44781;53.444;14.476;2023-03-31T05:45:02;10.40;;;4.50;;
58990;SDS011;44781;53.444;14.476;2023-03-31T05:47:30;9.60;;;3.60;;
58990;SDS011;44781;53.444;14.476;2023-03-31T05:49:59;10.30;;;4.10;;
58990;SDS011;44781;53.444;14.476;2023-03-31T05:52:26;9.20;;;4.30;;
58990;SDS011;44781;53.444;14.476;2023-03-31T05:54:54;12.30;;;4.40;;
58990;SDS011;44781;53.444;14.476;2023-03-31T05:57:21;9.40;;;3.70;;
58990;SDS011;44781;53.444;14.476;2023-03-31T05:59:48;10.10;;;4.10;;
58990;SDS011;44781;53.444;14.476;2023-03-31T06:02:15;10.50;;;4.00;;
58990;SDS011;44781;53.444;14.476;2023-03-31T06:04:43;8.30;;;3.50;;
58990;SDS011;44781;53.444;14.476;2023-03-31T06:07:11;8.70;;;3.80;;
58990;SDS011;44781;53.444;14.476;2023-03-31T06:09:40;8.30;;;3.80;;
58990;SDS011;44781;53.444;14.476;2023-03-31T06:12:10;7.80;;;3.80;;
58990;SDS011;44781;53.444;14.476;2023-03-31T06:14:38;8.80;;;4.50;;
58990;SDS011;44781;53.444;14.476;2023-03-31T06:17:05;9.50;;;4.40;;
58990;SDS011;44781;53.444;14.476;2023-03-31T06:19:32;9.20;;;4.50;;
58990;SDS011;44781;53.444;14.476;2023-03-31T06:22:00;11.20;;;5.00;;
58990;SDS011;44781;53.444;14.476;2023-03-31T06:24:27;7.80;;;4.60;;
58990;SDS011;44781;53.444;14.476;2023-03-31T06:26:54;8.70;;;4.00;;
58990;SDS011;44781;53.444;14.476;2023-03-31T06:29:21;7.80;;;4.10;;
58990;SDS011;44781;53.444;14.476;2023-03-31T06:31:51;10.20;;;4.40;;
58990;SDS011;44781;53.444;14.476;2023-03-31T06:34:27;7.30;;;3.80;;
58990;SDS011;44781;53.444;14.476;2023-03-31T06:36:57;8.10;;;3.70;;
58990;SDS011;44781;53.444;14.476;2023-03-31T06:39:25;9.10;;;4.30;;
58990;SDS011;44781;53.444;14.476;2023-03-31T06:41:53;9.00;;;4.50;;
58990;SDS011;44781;53.444;14.476;2023-03-31T06:44:29;10.20;;;4.10;;
58990;SDS011;44781;53.444;14.476;2023-03-31T06:46:57;9.10;;;4.40;;
58990;SDS011;44781;53.444;14.476;2023-03-31T06:49:24;7.80;;;3.60;;
58990;SDS011;44781;53.444;14.476;2023-03-31T06:51:52;8.50;;;3.90;;
58990;SDS011;44781;53.444;14.476;2023-03-31T06:54:19;8.00;;;4.10;;
58990;SDS011;44781;53.444;14.476;2023-03-31T06:56:47;7.50;;;3.80;;
58990;SDS011;44781;53.444;14.476;2023-03-31T06:59:14;8.30;;;4.00;;
58990;SDS011;44781;53.444;14.476;2023-03-31T07:01:42;9.40;;;4.20;;
58990;SDS011;44781;53.444;14.476;2023-03-31T07:04:11;8.80;;;4.20;;
58990;SDS011;44781;53.444;14.476;2023-03-31T07:06:40;8.60;;;4.10;;
58990;SDS011;44781;53.444;14.476;2023-03-31T07:09:10;8.00;;;3.40;;
58990;SDS011;44781;53.444;14.476;2023-03-31T07:12:10;8.60;;;3.60;;
58990;SDS011;44781;53.444;14.476;2023-03-31T07:14:46;6.90;;;3.30;;
58990;SDS011;44781;53.444;14.476;2023-03-31T07:17:17;10.60;;;3.30;;
58990;SDS011;44781;53.444;14.476;2023-03-31T07:19:54;7.30;;;3.20;;
58990;SDS011;44781;53.444;14.476;2023-03-31T07:22:21;8.50;;;3.30;;
58990;SDS011;44781;53.444;14.476;2023-03-31T07:24:48;6.20;;;2.70;;
58990;SDS011;44781;53.444;14.476;2023-03-31T07:27:15;11.20;;;4.20;;
58990;SDS011;44781;53.444;14.476;2023-03-31T07:29:43;8.50;;;3.30;;
58990;SDS011;44781;53.444;14.476;2023-03-31T07:32:10;6.80;;;2.90;;
58990;SDS011;44781;53.444;14.476;2023-03-31T07:34:37;7.70;;;2.70;;
58990;SDS011;44781;53.444;14.476;2023-03-31T07:37:06;7.80;;;3.10;;
58990;SDS011;44781;53.444;14.476;2023-03-31T07:39:34;9.50;;;3.00;;
58990;SDS011;44781;53.444;14.476;2023-03-31T07:42:05;7.10;;;2.60;;
58990;SDS011;44781;53.444;14.476;2023-03-31T07:44:36;8.40;;;2.80;;
58990;SDS011;44781;53.444;14.476;2023-03-31T07:47:03;7.70;;;3.00;;
58990;SDS011;44781;53.444;14.476;2023-03-31T07:49:32;8.10;;;3.30;;
58990;SDS011;44781;53.444;14.476;2023-03-31T07:51:59;6.90;;;2.70;;
58990;SDS011;44781;53.444;14.476;2023-03-31T07:54:28;6.10;;;3.00;;
58990;SDS011;44781;53.444;14.476;2023-03-31T07:56:55;7.90;;;2.70;;
58990;SDS011;44781;53.444;14.476;2023-03-31T07:59:22;7.80;;;2.90;;
58990;SDS011;44781;53.444;14.476;2023-03-31T08:01:50;8.60;;;3.00;;
58990;SDS011;44781;53.444;14.476;2023-03-31T08:04:22;8.30;;;3.00;;
58990;SDS011;44781;53.444;14.476;2023-03-31T08:06:51;8.30;;;2.70;;
58990;SDS011;44781;53.444;14.476;2023-03-31T08:09:19;7.70;;;3.30;;
58990;SDS011;44781;53.444;14.476;2023-03-31T08:11:48;9.10;;;3.20;;
58990;SDS011;44781;53.444;14.476;2023-03-31T08:14:16;5.70;;;2.60;;
58990;SDS011;44781;53.444;14.476;2023-03-31T08:16:44;7.20;;;2.50;;
58990;SDS011;44781;53.444;14.476;2023-03-31T08:19:11;6.80;;;2.70;;
58990;SDS011;44781;53.444;14.476;2023-03-31T08:21:38;6.10;;;2.40;;
58990;SDS011;44781;53.444;14.476;2023-03-31T08:24:06;7.20;;;2.70;;
58990;SDS011;44781;53.444;14.476;2023-03-31T08:26:33;6.30;;;2.60;;
58990;SDS011;44781;53.444;14.476;2023-03-31T08:29:01;7.60;;;3.10;;
58990;SDS011;44781;53.444;14.476;2023-03-31T08:31:30;6.10;;;2.70;;
58990;SDS011;44781;53.444;14.476;2023-03-31T08:33:58;6.50;;;2.50;;
58990;SDS011;44781;53.444;14.476;2023-03-31T08:36:25;5.90;;;2.40;;
58990;SDS011;44781;53.444;14.476;2023-03-31T08:38:56;7.30;;;2.60;;
58990;SDS011;44781;53.444;14.476;2023-03-31T08:45:05;7.20;;;2.60;;
58990;SDS011;44781;53.444;14.476;2023-03-31T08:47:58;7.60;;;2.70;;
58990;SDS011;44781;53.444;14.476;2023-03-31T08:50:32;7.80;;;2.60;;
58990;SDS011;44781;53.444;14.476;2023-03-31T08:56:34;7.40;;;2.70;;
58990;SDS011;44781;53.444;14.476;2023-03-31T08:59:27;7.70;;;3.30;;
58990;SDS011;44781;53.444;14.476;2023-03-31T09:06:05;6.50;;;3.00;;
58990;SDS011;44781;53.444;14.476;2023-03-31T09:08:37;8.30;;;2.50;;
58990;SDS011;44781;53.444;14.476;2023-03-31T09:14:37;9.20;;;3.00;;
58990;SDS011;44781;53.444;14.476;2023-03-31T09:17:15;7.40;;;2.80;;
58990;SDS011;44781;53.444;14.476;2023-03-31T09:20:56;7.40;;;2.80;;
58990;SDS011;44781;53.444;14.476;2023-03-31T09:24:11;8.40;;;3.70;;
58990;SDS011;44781;53.444;14.476;2023-03-31T09:27:17;7.30;;;2.80;;
58990;SDS011;44781;53.444;14.476;2023-03-31T09:29:49;7.20;;;3.10;;
58990;SDS011;44781;53.444;14.476;2023-03-31T09:32:32;8.50;;;3.60;;
58990;SDS011;44781;53.444;14.476;2023-03-31T09:35:18;9.20;;;3.50;;
58990;SDS011;44781;53.444;14.476;2023-03-31T09:38:31;9.10;;;3.90;;
58990;SDS011;44781;53.444;14.476;2023-03-31T09:41:48;8.80;;;4.10;;
58990;SDS011;44781;53.444;14.476;2023-03-31T09:47:41;14.40;;;4.50;;
58990;SDS011;44781;53.444;14.476;2023-03-31T09:50:18;8.70;;;3.70;;
58990;SDS011;44781;53.444;14.476;2023-03-31T09:53:02;10.20;;;3.80;;
58990;SDS011;44781;53.444;14.476;2023-03-31T10:13:28;9.10;;;3.90;;
58990;SDS011;44781;53.444;14.476;2023-03-31T10:16:30;8.90;;;3.90;;
58990;SDS011;44781;53.444;14.476;2023-03-31T10:21:57;8.90;;;3.50;;
58990;SDS011;44781;53.444;14.476;2023-03-31T10:24:35;9.60;;;3.20;;
58990;SDS011;44781;53.444;14.476;2023-03-31T10:27:13;7.50;;;3.40;;
58990;SDS011;44781;53.444;14.476;2023-03-31T10:29:52;7.50;;;3.70;;
58990;SDS011;44781;53.444;14.476;2023-03-31T10:34:55;9.10;;;3.50;;
58990;SDS011;44781;53.444;14.476;2023-03-31T10:37:25;11.90;;;3.40;;
58990;SDS011;44781;53.444;14.476;2023-03-31T10:39:59;8.80;;;3.80;;
58990;SDS011;44781;53.444;14.476;2023-03-31T10:42:34;8.40;;;3.20;;
58990;SDS011;44781;53.444;14.476;2023-03-31T10:45:12;9.90;;;3.30;;
58990;SDS011;44781;53.444;14.476;2023-03-31T10:47:42;8.40;;;3.00;;
58990;SDS011;44781;53.444;14.476;2023-03-31T10:50:17;9.50;;;3.60;;
58990;SDS011;44781;53.444;14.476;2023-03-31T10:52:46;9.90;;;3.50;;
58990;SDS011;44781;53.444;14.476;2023-03-31T10:55:21;9.20;;;3.50;;
58990;SDS011;44781;53.444;14.476;2023-03-31T10:57:57;9.40;;;3.50;;
58990;SDS011;44781;53.444;14.476;2023-03-31T11:00:41;9.90;;;3.70;;
58990;SDS011;44781;53.444;14.476;2023-03-31T11:06:48;9.10;;;3.40;;
58990;SDS011;44781;53.444;14.476;2023-03-31T11:09:30;7.40;;;3.10;;
58990;SDS011;44781;53.444;14.476;2023-03-31T11:15:12;9.50;;;3.20;;
58990;SDS011;44781;53.444;14.476;2023-03-31T11:20:20;6.70;;;3.00;;
58990;SDS011;44781;53.444;14.476;2023-03-31T11:22:53;10.10;;;3.50;;
58990;SDS011;44781;53.444;14.476;2023-03-31T11:28:52;8.10;;;2.80;;
58990;SDS011;44781;53.444;14.476;2023-03-31T11:40:20;9.20;;;4.20;;
58990;SDS011;44781;53.444;14.476;2023-03-31T11:43:01;7.80;;;3.60;;
58990;SDS011;44781;53.444;14.476;2023-03-31T11:45:40;10.70;;;3.90;;
58990;SDS011;44781;53.444;14.476;2023-03-31T11:48:15;9.30;;;3.50;;
58990;SDS011;44781;53.444;14.476;2023-03-31T11:50:53;9.30;;;3.10;;
58990;SDS011;44781;53.444;14.476;2023-03-31T11:53:29;9.40;;;3.10;;
58990;SDS011;44781;53.444;14.476;2023-03-31T11:56:01;10.30;;;3.80;;
58990;SDS011;44781;53.444;14.476;2023-03-31T12:06:34;6.70;;;2.60;;
58990;SDS011;44781;53.444;14.476;2023-03-31T12:11:51;8.10;;;2.90;;
58990;SDS011;44781;53.444;14.476;2023-03-31T12:18:12;9.50;;;3.10;;
58990;SDS011;44781;53.444;14.476;2023-03-31T12:21:13;11.40;;;5.00;;
58990;SDS011;44781;53.444;14.476;2023-03-31T12:31:10;7.10;;;2.70;;
58990;SDS011;44781;53.444;14.476;2023-03-31T12:35:09;5.30;;;1.70;;
58990;SDS011;44781;53.444;14.476;2023-03-31T13:04:22;7.40;;;2.30;;
58990;SDS011;44781;53.444;14.476;2023-03-31T13:34:42;4.40;;;1.10;;
58990;SDS011;44781;53.444;14.476;2023-03-31T13:47:59;7.00;;;2.90;;
58990;SDS011;44781;53.444;14.476;2023-03-31T13:57:53;9.70;;;3.20;;
58990;SDS011;44781;53.444;14.476;2023-03-31T14:11:23;10.80;;;3.60;;
58990;SDS011;44781;53.444;14.476;2023-03-31T14:39:44;8.90;;;3.50;;
58990;SDS011;44781;53.444;14.476;2023-03-31T14:47:56;5.40;;;1.50;;
58990;SDS011;44781;53.444;14.476;2023-03-31T14:50:48;4.60;;;1.40;;
58990;SDS011;44781;53.444;14.476;2023-03-31T14:53:22;2.70;;;1.10;;
58990;SDS011;44781;53.444;14.476;2023-03-31T14:55:56;3.30;;;1.20;;
58990;SDS011;44781;53.444;14.476;2023-03-31T14:59:30;3.10;;;1.00;;
58990;SDS011;44781;53.444;14.476;2023-03-31T15:06:02;3.20;;;1.30;;
58990;SDS011;44781;53.444;14.476;2023-03-31T15:09:13;2.40;;;0.90;;
58990;SDS011;44781;53.444;14.476;2023-03-31T15:16:52;4.30;;;2.20;;
58990;SDS011;44781;53.444;14.476;2023-03-31T15:19:33;4.70;;;1.90;;
58990;SDS011;44781;53.444;14.476;2023-03-31T15:36:26;10.00;;;5.70;;
58990;SDS011;44781;53.444;14.476;2023-03-31T15:38:58;5.10;;;2.00;;
58990;SDS011;44781;53.444;14.476;2023-03-31T15:41:28;3.30;;;1.40;;
58990;SDS011;44781;53.444;14.476;2023-03-31T15:47:19;3.30;;;1.60;;
58990;SDS011;44781;53.444;14.476;2023-03-31T15:50:11;9.10;;;3.90;;
58990;SDS011;44781;53.444;14.476;2023-03-31T15:53:18;7.20;;;3.00;;
58990;SDS011;44781;53.444;14.476;2023-03-31T15:56:36;5.30;;;2.60;;
58990;SDS011;44781;53.444;14.476;2023-03-31T15:59:30;5.80;;;2.40;;
58990;SDS011;44781;53.444;14.476;2023-03-31T16:02:27;6.80;;;3.40;;
58990;SDS011;44781;53.444;14.476;2023-03-31T16:05:32;9.20;;;4.90;;
58990;SDS011;44781;53.444;14.476;2023-03-31T16:08:13;9.10;;;4.70;;
58990;SDS011;44781;53.444;14.476;2023-03-31T16:11:27;14.70;;;9.00;;
58990;SDS011;44781;53.444;14.476;2023-03-31T16:14:55;17.20;;;9.60;;
58990;SDS011;44781;53.444;14.476;2023-03-31T16:17:13;13.70;;;6.80;;
58990;SDS011;44781;53.444;14.476;2023-03-31T16:20:08;10.50;;;5.50;;
58990;SDS011;44781;53.444;14.476;2023-03-31T16:27:36;6.40;;;3.00;;
58990;SDS011;44781;53.444;14.476;2023-03-31T16:30:45;7.10;;;4.50;;
58990;SDS011;44781;53.444;14.476;2023-03-31T16:33:17;7.60;;;4.00;;
58990;SDS011;44781;53.444;14.476;2023-03-31T16:35:47;6.50;;;3.40;;
58990;SDS011;44781;53.444;14.476;2023-03-31T16:38:26;7.20;;;3.50;;
58990;SDS011;44781;53.444;14.476;2023-03-31T16:41:05;5.60;;;2.60;;
58990;SDS011;44781;53.444;14.476;2023-03-31T16:43:33;7.60;;;2.90;;
58990;SDS011;44781;53.444;14.476;2023-03-31T17:51:16;16.00;;;11.90;;
58990;SDS011;44781;53.444;14.476;2023-03-31T17:53:46;17.50;;;10.90;;
58990;SDS011;44781;53.444;14.476;2023-03-31T17:56:16;15.60;;;11.50;;
58990;SDS011;44781;53.444;14.476;2023-03-31T17:58:47;15.00;;;9.50;;
58990;SDS011;44781;53.444;14.476;2023-03-31T18:04:15;15.50;;;9.90;;
58990;SDS011;44781;53.444;14.476;2023-03-31T18:06:45;15.50;;;10.10;;
58990;SDS011;44781;53.444;14.476;2023-03-31T18:09:16;14.40;;;9.20;;
58990;SDS011;44781;53.444;14.476;2023-03-31T18:15:40;11.10;;;6.90;;
58990;SDS011;44781;53.444;14.476;2023-03-31T18:19:03;7.90;;;4.60;;
58990;SDS011;44781;53.444;14.476;2023-03-31T18:22:12;8.40;;;4.70;;
58990;SDS011;44781;53.444;14.476;2023-03-31T18:25:20;6.60;;;4.20;;
58990;SDS011;44781;53.444;14.476;2023-03-31T18:28:12;8.20;;;4.90;;
58990;SDS011;44781;53.444;14.476;2023-03-31T18:31:17;8.20;;;4.40;;
58990;SDS011;44781;53.444;14.476;2023-03-31T18:33:58;8.10;;;4.20;;
58990;SDS011;44781;53.444;14.476;2023-03-31T18:36:34;7.30;;;4.00;;
58990;SDS011;44781;53.444;14.476;2023-03-31T18:40:12;8.20;;;5.00;;
58990;SDS011;44781;53.444;14.476;2023-03-31T18:43:54;8.60;;;5.00;;
58990;SDS011;44781;53.444;14.476;2023-03-31T18:46:40;8.00;;;4.80;;
58990;SDS011;44781;53.444;14.476;2023-03-31T18:49:48;9.00;;;5.50;;
58990;SDS011;44781;53.444;14.476;2023-03-31T18:52:44;7.90;;;5.50;;
58990;SDS011;44781;53.444;14.476;2023-03-31T18:56:17;9.40;;;5.20;;
58990;SDS011;44781;53.444;14.476;2023-03-31T18:59:36;8.30;;;5.30;;
58990;SDS011;44781;53.444;14.476;2023-03-31T19:03:38;9.40;;;5.30;;
58990;SDS011;44781;53.444;14.476;2023-03-31T19:07:02;8.20;;;5.20;;
58990;SDS011;44781;53.444;14.476;2023-03-31T19:10:39;13.80;;;8.70;;
58990;SDS011;44781;53.444;14.476;2023-03-31T19:13:19;8.90;;;6.30;;
58990;SDS011;44781;53.444;14.476;2023-03-31T19:16:12;13.00;;;7.80;;
58990;SDS011;44781;53.444;14.476;2023-03-31T19:18:49;19.20;;;11.30;;
58990;SDS011;44781;53.444;14.476;2023-03-31T19:21:47;27.40;;;18.10;;
58990;SDS011;44781;53.444;14.476;2023-03-31T19:24:45;15.80;;;12.00;;
58990;SDS011;44781;53.444;14.476;2023-03-31T19:27:17;15.40;;;11.10;;
58990;SDS011;44781;53.444;14.476;2023-03-31T19:29:58;12.60;;;10.30;;
58990;SDS011;44781;53.444;14.476;2023-03-31T19:32:26;14.20;;;10.20;;
58990;SDS011;44781;53.444;14.476;2023-03-31T19:34:59;16.90;;;11.60;;
58990;SDS011;44781;53.444;14.476;2023-03-31T19:37:27;14.10;;;8.80;;
58990;SDS011;44781;53.444;14.476;2023-03-31T19:39:58;13.10;;;9.10;;
58990;SDS011;44781;53.444;14.476;2023-03-31T19:42:28;13.80;;;10.60;;
58990;SDS011;44781;53.444;14.476;2023-03-31T19:45:39;12.50;;;8.60;;
58990;SDS011;44781;53.444;14.476;2023-03-31T19:48:17;11.90;;;9.00;;
58990;SDS011;44781;53.444;14.476;2023-03-31T19:50:53;14.80;;;9.70;;
58990;SDS011;44781;53.444;14.476;2023-03-31T19:53:45;12.20;;;8.40;;
58990;SDS011;44781;53.444;14.476;2023-03-31T19:56:18;18.70;;;13.60;;
58990;SDS011;44781;53.444;14.476;2023-03-31T19:59:38;26.60;;;20.80;;
58990;SDS011;44781;53.444;14.476;2023-03-31T20:03:51;20.20;;;16.00;;
58990;SDS011;44781;53.444;14.476;2023-03-31T20:07:35;15.90;;;12.90;;
58990;SDS011;44781;53.444;14.476;2023-03-31T20:11:00;19.50;;;13.50;;
58990;SDS011;44781;53.444;14.476;2023-03-31T20:14:02;18.50;;;15.80;;
58990;SDS011;44781;53.444;14.476;2023-03-31T21:33:30;15.20;;;10.40;;
58990;SDS011;44781;53.444;14.476;2023-03-31T21:40:24;15.30;;;11.40;;
58990;SDS011;44781;53.444;14.476;2023-03-31T21:43:09;13.50;;;10.20;;
58990;SDS011;44781;53.444;14.476;2023-03-31T21:45:48;14.60;;;9.90;;
58990;SDS011;44781;53.444;14.476;2023-03-31T21:48:57;18.00;;;13.40;;
58990;SDS011;44781;53.444;14.476;2023-03-31T21:51:38;20.40;;;12.70;;
58990;SDS011;44781;53.444;14.476;2023-03-31T21:54:30;17.40;;;12.40;;
58990;SDS011;44781;53.444;14.476;2023-03-31T21:57:11;16.90;;;12.50;;
58990;SDS011;44781;53.444;14.476;2023-03-31T22:00:02;18.50;;;12.60;;
58990;SDS011;44781;53.444;14.476;2023-03-31T22:02:52;20.40;;;13.10;;
58990;SDS011;44781;53.444;14.476;2023-03-31T22:05:26;16.90;;;11.40;;
58990;SDS011;44781;53.444;14.476;2023-03-31T22:08:09;16.70;;;11.50;;
58990;SDS011;44781;53.444;14.476;2023-03-31T22:10:54;17.50;;;12.30;;
58990;SDS011;44781;53.444;14.476;2023-03-31T22:18:15;17.20;;;12.50;;
58990;SDS011;44781;53.444;14.476;2023-03-31T22:25:13;13.30;;;9.00;;
58990;SDS011;44781;53.444;14.476;2023-03-31T23:12:04;12.90;;;8.30;;
58990;SDS011;44781;53.444;14.476;2023-03-31T23:15:54;9.40;;;5.50;;
58990;SDS011;44781;53.444;14.476;2023-03-31T23:18:25;8.60;;;5.30;;
58990;SDS011;44781;53.444;14.476;2023-03-31T23:20:57;9.10;;;5.10;;
58990;SDS011;44781;53.444;14.476;2023-03-31T23:23:25;9.00;;;6.00;;
58990;SDS011;44781;53.444;14.476;2023-03-31T23:26:02;7.90;;;5.00;;
58990;SDS011;44781;53.444;14.476;2023-03-31T23:28:32;8.30;;;5.50;;
58990;SDS011;44781;53.444;14.476;2023-03-31T23:31:02;7.40;;;4.70;;
58990;SDS011;44781;53.444;14.476;2023-03-31T23:33:38;9.40;;;5.10;;
58990;SDS011;44781;53.444;14.476;2023-03-31T23:36:06;8.70;;;5.40;;
58990;SDS011;44781;53.444;14.476;2023-03-31T23:38:34;8.20;;;5.80;;
58990;SDS011;44781;53.444;14.476;2023-03-31T23:41:02;9.10;;;5.80;;
58990;SDS011;44781;53.444;14.476;2023-03-31T23:43:31;10.50;;;6.50;;